createdAt,value
2024-03-05T00:00:17.732Z,41.35
2024-03-05T00:02:44.844Z,35.72
2024-03-05T00:05:15.267Z,40.88
2024-03-05T00:07:42.351Z,34.87
2024-03-05T00:10:08.909Z,37.80
2024-03-05T00:12:35.734Z,39.40
2024-03-05T00:15:02.601Z,40.83
2024-03-05T00:17:29.061Z,39.67
2024-03-05T00:19:55.702Z,38.03
2024-03-05T00:22:22.263Z,41.92
2024-03-05T00:24:48.828Z,37.42
2024-03-05T00:27:15.313Z,34.80
2024-03-05T00:29:42.262Z,34.75
2024-03-05T00:32:08.790Z,34.83
2024-03-05T00:34:35.322Z,34.05
2024-03-05T00:37:01.809Z,28.38
2024-03-05T00:39:28.327Z,34.38
2024-03-05T00:41:55.285Z,33.92
2024-03-05T00:44:21.865Z,32.90
2024-03-05T00:46:48.320Z,28.58
2024-03-05T00:49:14.835Z,38.15
2024-03-05T00:51:41.478Z,42.72
2024-03-05T00:54:07.989Z,33.63
2024-03-05T00:56:34.399Z,34.90
2024-03-05T00:59:00.880Z,36.25
2024-03-05T01:01:27.467Z,38.55
2024-03-05T01:03:53.932Z,34.58
2024-03-05T01:06:20.384Z,37.80
2024-03-05T01:08:46.824Z,36.53
2024-03-05T01:11:14.734Z,35.40
2024-03-05T01:13:43.048Z,36.28
2024-03-05T01:16:10.649Z,37.53
2024-03-05T01:18:38.067Z,34.42
2024-03-05T01:21:07.057Z,38.25
2024-03-05T01:23:34.190Z,33.95
2024-03-05T01:26:01.066Z,39.25
2024-03-05T01:28:30.872Z,36.72
2024-03-05T01:30:59.976Z,40.85
2024-03-05T01:33:26.907Z,37.33
2024-03-05T01:35:54.086Z,38.30
2024-03-05T01:38:21.210Z,38.28
2024-03-05T01:40:47.741Z,38.20
2024-03-05T01:43:14.381Z,35.97
2024-03-05T01:45:40.933Z,35.75
2024-03-05T01:48:07.553Z,39.53
2024-03-05T01:50:37.923Z,32.80
2024-03-05T01:53:05.453Z,38.25
2024-03-05T01:55:32.094Z,32.70
2024-03-05T01:58:04.985Z,34.75
2024-03-05T02:00:32.484Z,36.40
2024-03-05T02:02:59.320Z,37.35
2024-03-05T02:05:25.890Z,35.50
2024-03-05T02:07:54.141Z,33.33
2024-03-05T02:10:21.396Z,34.05
2024-03-05T02:12:47.811Z,36.15
2024-03-05T02:15:14.457Z,36.45
2024-03-05T02:17:41.344Z,32.05
2024-03-05T02:20:11.150Z,30.95
2024-03-05T02:22:38.284Z,35.03
2024-03-05T02:25:06.407Z,33.95
2024-03-05T02:27:35.174Z,32.78
2024-03-05T02:30:03.736Z,29.25
2024-03-05T02:32:30.420Z,34.15
2024-03-05T02:34:56.961Z,32.22
2024-03-05T02:37:23.470Z,30.15
2024-03-05T02:39:50.669Z,33.83
2024-03-05T02:42:17.094Z,28.25
2024-03-05T02:44:43.521Z,27.23
2024-03-05T02:47:10.033Z,28.45
2024-03-05T02:49:37.935Z,34.78
2024-03-05T02:52:04.718Z,27.67
2024-03-05T02:54:31.187Z,32.55
2024-03-05T02:56:57.648Z,31.95
2024-03-05T02:59:25.167Z,32.20
2024-03-05T03:01:54.821Z,28.30
2024-03-05T03:04:21.310Z,28.23
2024-03-05T03:06:50.916Z,29.33
2024-03-05T03:09:17.364Z,28.63
2024-03-05T03:11:50.184Z,30.20
2024-03-05T03:14:16.955Z,31.45
2024-03-05T03:16:44.916Z,25.38
2024-03-05T03:19:11.932Z,28.85
2024-03-05T03:21:38.927Z,28.13
2024-03-05T03:24:05.538Z,32.03
2024-03-05T03:26:32.331Z,30.83
2024-03-05T03:28:58.997Z,35.72
2024-03-05T03:31:27.975Z,34.15
2024-03-05T03:33:54.663Z,33.72
2024-03-05T03:36:27.569Z,34.67
2024-03-05T03:38:54.150Z,34.38
2024-03-05T03:41:20.773Z,30.80
2024-03-05T03:43:48.285Z,37.30
2024-03-05T03:46:14.869Z,36.58
2024-03-05T03:48:42.033Z,40.95
2024-03-05T03:51:08.940Z,35.17
2024-03-05T03:53:38.446Z,36.97
2024-03-05T03:56:05.064Z,37.42
2024-03-05T03:58:32.085Z,31.65
2024-03-05T04:01:00.194Z,33.30
2024-03-05T04:03:26.793Z,36.50
2024-03-05T04:05:53.587Z,36.50
2024-03-05T04:08:20.004Z,36.33
2024-03-05T04:10:46.785Z,30.73
2024-03-05T04:13:13.981Z,34.65
2024-03-05T04:15:40.709Z,37.05
2024-03-05T04:18:07.201Z,38.90
2024-03-05T04:20:33.705Z,35.92
2024-03-05T04:23:00.242Z,33.83
2024-03-05T04:25:35.547Z,32.92
2024-03-05T04:28:11.623Z,37.00
2024-03-05T04:30:39.287Z,33.30
2024-03-05T04:33:12.300Z,31.65
2024-03-05T04:35:39.022Z,34.15
2024-03-05T04:38:08.389Z,30.20
2024-03-05T04:40:35.170Z,29.95
2024-03-05T04:43:01.755Z,29.67
2024-03-05T04:45:28.538Z,27.65
2024-03-05T04:47:55.385Z,27.50
2024-03-05T04:50:22.396Z,27.13
2024-03-05T04:52:49.025Z,26.52
2024-03-05T04:55:15.665Z,27.92
2024-03-05T04:57:42.131Z,26.38
2024-03-05T05:00:21.160Z,22.50
2024-03-05T05:02:49.132Z,24.83
2024-03-05T05:05:16.816Z,24.98
2024-03-05T05:07:44.455Z,22.23
2024-03-05T05:10:11.542Z,20.75
2024-03-05T05:12:39.289Z,25.27
2024-03-05T05:15:09.084Z,23.58
2024-03-05T05:17:36.009Z,22.90
2024-03-05T05:20:03.984Z,23.48
2024-03-05T05:22:30.856Z,24.73
2024-03-05T05:24:57.478Z,30.02
2024-03-05T05:27:24.539Z,27.30
2024-03-05T05:29:53.122Z,26.00
2024-03-05T05:32:21.767Z,22.67
2024-03-05T05:34:48.244Z,23.55
2024-03-05T05:37:16.609Z,20.98
2024-03-05T05:39:43.134Z,25.88
2024-03-05T05:42:13.078Z,23.42
2024-03-05T05:44:39.602Z,22.70
2024-03-05T05:47:06.099Z,24.25
2024-03-05T05:49:33.476Z,27.67
2024-03-05T05:52:00.037Z,27.50
2024-03-05T05:54:26.851Z,28.05
2024-03-05T05:56:53.374Z,34.88
2024-03-05T05:59:20.128Z,34.40
2024-03-05T06:01:46.708Z,33.25
2024-03-05T06:04:13.513Z,35.90
2024-03-05T06:06:40.197Z,31.45
2024-03-05T06:09:09.881Z,37.63
2024-03-05T06:11:37.487Z,26.45
2024-03-05T06:14:04.564Z,28.58
2024-03-05T06:16:32.122Z,29.25
2024-03-05T06:18:58.731Z,32.83
2024-03-05T06:21:25.229Z,29.95
2024-03-05T06:23:51.856Z,28.58
2024-03-05T06:26:18.305Z,28.15
2024-03-05T06:28:45.006Z,27.80
2024-03-05T06:31:11.580Z,29.95
2024-03-05T06:33:38.411Z,29.13
2024-03-05T06:36:08.109Z,27.02
2024-03-05T06:38:35.684Z,30.23
2024-03-05T06:41:03.089Z,28.42
2024-03-05T06:43:39.210Z,32.22
2024-03-05T06:46:06.081Z,34.80
2024-03-05T06:48:34.538Z,27.30
2024-03-05T06:51:17.108Z,31.67
2024-03-05T06:54:02.578Z,28.52
2024-03-05T06:56:41.665Z,26.17
2024-03-05T06:59:11.224Z,25.17
2024-03-05T07:01:38.139Z,28.65
2024-03-05T07:04:06.963Z,28.70
2024-03-05T07:06:33.549Z,27.33
2024-03-05T07:09:00.938Z,19.63
2024-03-05T07:11:28.795Z,24.50
2024-03-05T07:13:56.615Z,22.10
2024-03-05T07:16:24.993Z,17.55
2024-03-05T07:18:54.202Z,13.43
2024-03-05T07:21:22.928Z,14.63
2024-03-05T07:23:50.200Z,14.45
2024-03-05T07:26:16.996Z,16.25
2024-03-05T07:28:44.352Z,18.17
2024-03-05T07:31:11.210Z,16.70
2024-03-05T07:33:39.389Z,15.15
2024-03-05T07:36:07.477Z,16.88
2024-03-05T07:38:37.073Z,17.88
2024-03-05T07:41:13.306Z,18.08
2024-03-05T07:43:44.581Z,16.65
2024-03-05T07:46:11.609Z,16.48
2024-03-05T07:48:38.219Z,17.02
2024-03-05T07:51:04.787Z,16.23
2024-03-05T07:53:31.457Z,17.90
2024-03-05T07:55:58.542Z,16.00
2024-03-05T07:58:25.476Z,19.95
2024-03-05T08:00:52.124Z,15.25
2024-03-05T08:03:18.603Z,18.75
2024-03-05T08:05:45.806Z,16.60
2024-03-05T08:08:12.353Z,15.27
2024-03-05T08:10:39.125Z,14.20
2024-03-05T08:13:05.749Z,13.70
2024-03-05T08:15:32.227Z,16.65
2024-03-05T08:17:59.801Z,16.73
2024-03-05T08:20:27.096Z,16.83
2024-03-05T08:22:57.398Z,15.77
2024-03-05T08:25:24.805Z,15.52
2024-03-05T08:27:54.463Z,15.07
2024-03-05T08:30:25.377Z,16.63
2024-03-05T08:32:53.625Z,16.38
2024-03-05T08:35:20.569Z,15.45
2024-03-05T08:37:48.533Z,16.88
2024-03-05T08:40:16.404Z,14.30
2024-03-05T08:42:43.685Z,19.40
2024-03-05T08:45:14.037Z,15.25
2024-03-05T08:47:41.342Z,16.27
2024-03-05T08:50:07.972Z,13.68
2024-03-05T08:52:34.563Z,12.48
2024-03-05T08:55:01.013Z,12.15
2024-03-05T08:57:27.446Z,12.85
2024-03-05T08:59:54.295Z,14.68
2024-03-05T09:02:20.871Z,13.52
2024-03-05T09:04:49.158Z,11.48
2024-03-05T09:07:16.000Z,10.48
2024-03-05T09:09:43.088Z,13.48
2024-03-05T09:12:10.161Z,12.43
2024-03-05T09:14:37.045Z,12.60
2024-03-05T09:17:04.042Z,12.57
2024-03-05T09:19:30.650Z,13.52
2024-03-05T09:21:57.119Z,9.32
2024-03-05T09:24:23.853Z,12.20
2024-03-05T09:26:51.230Z,11.43
2024-03-05T09:29:17.870Z,13.23
2024-03-05T09:31:44.439Z,10.20
2024-03-05T09:34:10.999Z,10.45
2024-03-05T09:36:38.230Z,11.50
2024-03-05T09:39:10.122Z,8.70
2024-03-05T09:41:46.038Z,8.23
2024-03-05T09:44:12.945Z,7.25
2024-03-05T09:46:47.104Z,6.45
2024-03-05T09:49:22.405Z,6.60
2024-03-05T09:51:52.099Z,5.90
2024-03-05T09:54:18.559Z,4.35
2024-03-05T09:56:46.925Z,3.72
2024-03-05T09:59:14.233Z,4.63
2024-03-05T10:01:45.904Z,4.28
2024-03-05T10:04:13.968Z,3.25
2024-03-05T10:06:40.444Z,2.83
2024-03-05T10:09:10.050Z,4.82
2024-03-05T10:11:37.415Z,3.03
2024-03-05T10:14:09.225Z,2.63
2024-03-05T10:19:13.047Z,2.38
2024-03-05T10:21:45.537Z,2.05
2024-03-05T10:24:13.441Z,3.22
2024-03-05T10:26:39.997Z,3.08
2024-03-05T10:29:10.352Z,2.22
2024-03-05T10:31:40.822Z,2.72
2024-03-05T10:34:07.910Z,2.42
2024-03-05T10:36:35.326Z,2.05
2024-03-05T10:39:02.338Z,1.98
2024-03-05T10:41:39.004Z,2.15
2024-03-05T10:44:14.632Z,2.17
2024-03-05T10:46:44.267Z,1.67
2024-03-05T10:49:12.402Z,1.35
2024-03-05T10:51:39.791Z,1.25
2024-03-05T10:54:06.883Z,2.25
2024-03-05T10:56:43.381Z,2.10
2024-03-05T10:59:18.464Z,1.88
2024-03-05T11:01:46.076Z,1.15
2024-03-05T11:04:14.493Z,1.83
2024-03-05T11:06:41.996Z,1.58
2024-03-05T11:09:12.052Z,1.30
2024-03-05T11:11:40.623Z,1.38
2024-03-05T11:14:08.041Z,1.58
2024-03-05T11:16:35.266Z,1.48
2024-03-05T11:19:05.813Z,1.65
2024-03-05T11:21:35.509Z,2.95
2024-03-05T11:24:03.632Z,2.75
2024-03-05T11:26:33.473Z,2.38
2024-03-05T11:29:26.271Z,2.60
2024-03-05T11:31:53.544Z,2.00
2024-03-05T11:34:21.010Z,2.05
2024-03-05T11:37:07.779Z,1.90
2024-03-05T11:39:36.314Z,2.33
2024-03-05T11:42:03.298Z,2.92
2024-03-05T11:44:32.788Z,2.55
2024-03-05T11:46:59.620Z,1.60
2024-03-05T11:49:26.196Z,2.25
2024-03-05T11:51:55.496Z,2.47
2024-03-05T11:54:25.016Z,1.92
2024-03-05T11:56:58.842Z,3.30
2024-03-05T11:59:35.588Z,2.05
2024-03-05T12:02:02.394Z,1.33
2024-03-05T12:04:29.065Z,1.33
2024-03-05T12:07:07.012Z,1.50
2024-03-05T12:09:38.091Z,1.02
2024-03-05T12:12:12.589Z,2.63
2024-03-05T12:15:03.850Z,2.30
2024-03-05T12:17:33.827Z,2.40
2024-03-05T12:20:08.987Z,1.77
2024-03-05T12:22:40.983Z,2.33
2024-03-05T12:25:09.225Z,2.65
2024-03-05T12:27:38.256Z,2.97
2024-03-05T12:30:07.418Z,2.92
2024-03-05T12:32:34.007Z,1.83
2024-03-05T12:35:00.739Z,2.80
2024-03-05T12:37:29.428Z,2.92
2024-03-05T12:40:00.674Z,2.70
2024-03-05T12:42:27.207Z,2.53
2024-03-05T12:45:03.294Z,2.58
2024-03-05T12:47:30.539Z,3.03
2024-03-05T12:50:00.758Z,3.75
2024-03-05T12:52:27.348Z,2.53
2024-03-05T12:55:01.200Z,3.10
2024-03-05T12:57:28.662Z,4.28
2024-03-05T12:59:57.100Z,2.50
2024-03-05T13:02:24.031Z,3.35
2024-03-05T13:04:50.832Z,3.00
2024-03-05T13:07:17.337Z,3.92
2024-03-05T13:09:43.854Z,2.95
2024-03-05T13:12:10.416Z,2.55
2024-03-05T13:14:37.451Z,1.90
2024-03-05T13:17:04.376Z,2.58
2024-03-05T13:19:31.390Z,2.83
2024-03-05T13:21:57.854Z,2.70
2024-03-05T13:24:24.291Z,2.25
2024-03-05T13:26:50.854Z,2.78
2024-03-05T13:29:17.667Z,2.95
2024-03-05T13:31:44.219Z,2.35
2024-03-05T13:34:11.283Z,2.30
2024-03-05T13:36:38.784Z,3.42
2024-03-05T13:39:09.443Z,2.35
2024-03-05T13:41:36.718Z,4.70
2024-03-05T13:44:03.388Z,2.00
2024-03-05T13:46:29.970Z,2.90
2024-03-05T13:48:59.448Z,4.40
2024-03-05T13:51:27.530Z,3.28
2024-03-05T13:53:54.513Z,2.80
2024-03-05T13:56:21.413Z,2.65
2024-03-05T13:58:47.949Z,3.10
2024-03-05T14:01:14.453Z,2.25
2024-03-05T14:03:40.963Z,2.20
2024-03-05T14:06:08.051Z,2.63
2024-03-05T14:08:35.417Z,3.55
2024-03-05T14:11:05.469Z,2.33
2024-03-05T14:13:34.106Z,1.83
2024-03-05T14:16:01.179Z,2.08
2024-03-05T14:18:27.666Z,3.20
2024-03-05T14:20:54.359Z,3.38
2024-03-05T14:23:21.015Z,2.83
2024-03-05T14:25:48.019Z,2.72
2024-03-05T14:28:15.698Z,2.47
2024-03-05T14:30:42.260Z,4.13
2024-03-05T14:33:09.006Z,2.63
2024-03-05T14:35:36.469Z,3.40
2024-03-05T14:38:03.150Z,3.20
2024-03-05T14:40:29.743Z,4.22
2024-03-05T14:42:56.547Z,3.58
2024-03-05T14:45:23.609Z,6.13
2024-03-05T14:47:50.881Z,4.43
2024-03-05T14:50:23.339Z,2.53
2024-03-05T14:52:49.957Z,3.88
2024-03-05T14:55:16.471Z,3.63
2024-03-05T14:57:43.486Z,3.55
2024-03-05T15:00:16.904Z,2.30
2024-03-05T15:02:45.922Z,2.80
2024-03-05T15:05:13.101Z,2.70
2024-03-05T15:07:42.852Z,1.50
2024-03-05T15:10:16.140Z,2.28
2024-03-05T15:12:44.637Z,1.27
2024-03-05T15:15:12.358Z,1.58
2024-03-05T15:17:39.418Z,2.17
2024-03-05T15:20:11.636Z,3.20
2024-03-05T15:22:39.527Z,2.78
2024-03-05T15:25:08.040Z,2.15
2024-03-05T15:27:35.239Z,2.05
2024-03-05T15:30:02.592Z,2.33
2024-03-05T15:32:29.120Z,2.53
2024-03-05T15:34:57.700Z,3.63
2024-03-05T15:37:25.449Z,3.58
2024-03-05T15:39:52.045Z,3.30
2024-03-05T15:42:18.614Z,2.42
2024-03-05T15:44:47.916Z,2.42
2024-03-05T15:47:14.673Z,2.50
2024-03-05T15:49:42.124Z,2.05
2024-03-05T15:52:12.319Z,1.98
2024-03-05T15:54:40.540Z,2.83
2024-03-05T15:57:10.132Z,2.72
2024-03-05T15:59:55.303Z,2.72
2024-03-05T16:02:24.989Z,3.63
2024-03-05T16:05:13.271Z,2.58
2024-03-05T16:07:39.725Z,4.15
2024-03-05T16:10:14.418Z,3.50
2024-03-05T16:12:43.494Z,3.80
2024-03-05T16:15:11.496Z,4.93
2024-03-05T16:17:38.393Z,3.60
2024-03-05T16:20:07.193Z,3.85
2024-03-05T16:22:36.670Z,3.50
2024-03-05T16:25:12.208Z,2.88
2024-03-05T16:27:45.801Z,2.97
2024-03-05T16:30:12.441Z,2.17
2024-03-05T16:32:39.370Z,2.00
2024-03-05T16:35:07.002Z,5.60
2024-03-05T16:37:33.926Z,3.70
2024-03-05T16:40:00.591Z,2.58
2024-03-05T16:42:27.858Z,3.05
2024-03-05T16:44:54.297Z,2.78
2024-03-05T16:47:20.753Z,2.55
2024-03-05T16:49:47.215Z,2.20
2024-03-05T16:52:13.890Z,5.13
2024-03-05T16:54:40.364Z,3.45
2024-03-05T16:57:09.130Z,10.15
2024-03-05T16:59:35.628Z,3.83
2024-03-05T17:02:03.119Z,6.45
2024-03-05T17:04:30.081Z,3.08
2024-03-05T17:07:00.134Z,4.47
2024-03-05T17:09:30.807Z,3.58
2024-03-05T17:11:59.756Z,4.33
2024-03-05T17:14:26.311Z,3.53
2024-03-05T17:16:58.111Z,3.35
2024-03-05T17:19:25.884Z,6.15
2024-03-05T17:21:53.008Z,5.30
2024-03-05T17:24:19.794Z,4.53
2024-03-05T17:26:46.838Z,3.53
2024-03-05T17:29:14.502Z,3.10
2024-03-05T17:31:41.150Z,3.10
2024-03-05T17:34:09.765Z,3.00
2024-03-05T17:36:37.962Z,2.17
2024-03-05T17:39:11.177Z,3.75
2024-03-05T17:41:38.364Z,2.25
2024-03-05T17:44:06.048Z,2.88
2024-03-05T17:46:33.523Z,3.67
2024-03-05T17:49:00.855Z,2.97
2024-03-05T17:51:27.304Z,2.38
2024-03-05T17:53:54.116Z,4.10
2024-03-05T17:56:20.878Z,2.70
2024-03-05T17:58:47.517Z,4.00
2024-03-05T18:01:15.341Z,3.17
2024-03-05T18:03:44.584Z,2.33
2024-03-05T18:06:12.029Z,6.13
2024-03-05T18:08:38.499Z,6.43
2024-03-05T18:11:06.876Z,5.60
2024-03-05T18:13:33.393Z,5.07
2024-03-05T18:16:00.394Z,2.35
2024-03-05T18:18:27.892Z,3.58
2024-03-05T18:20:55.126Z,5.03
2024-03-05T18:23:22.177Z,4.80
2024-03-05T18:25:49.791Z,5.50
2024-03-05T18:28:21.260Z,5.38
2024-03-05T18:30:49.251Z,5.47
2024-03-05T18:33:17.345Z,6.22
2024-03-05T18:35:46.357Z,4.13
2024-03-05T18:38:23.984Z,6.60
2024-03-05T18:40:57.892Z,4.85
2024-03-05T18:43:26.194Z,7.45
2024-03-05T18:45:53.118Z,5.60
2024-03-05T18:48:19.642Z,3.88
2024-03-05T18:50:48.059Z,3.95
2024-03-05T18:53:15.137Z,3.47
2024-03-05T18:55:42.189Z,5.68
2024-03-05T18:58:09.460Z,4.18
2024-03-05T19:00:37.756Z,5.82
2024-03-05T19:03:06.135Z,2.80
2024-03-05T19:05:34.231Z,3.22
2024-03-05T19:08:00.703Z,2.38
2024-03-05T19:10:27.209Z,2.75
2024-03-05T19:12:54.897Z,5.68
2024-03-05T19:15:23.523Z,3.80
2024-03-05T19:17:50.073Z,4.35
2024-03-05T19:20:16.886Z,5.70
2024-03-05T19:22:43.777Z,4.43
2024-03-05T19:25:12.698Z,3.70
2024-03-05T19:27:40.086Z,5.75
2024-03-05T19:30:11.678Z,3.85
2024-03-05T19:32:41.570Z,5.85
2024-03-05T19:35:12.102Z,4.00
2024-03-05T19:37:41.308Z,3.10
2024-03-05T19:40:09.215Z,3.35
2024-03-05T19:42:35.741Z,7.75
2024-03-05T19:45:02.286Z,8.68
2024-03-05T19:47:30.188Z,11.15
2024-03-05T19:49:56.946Z,8.90
2024-03-05T19:52:24.280Z,14.00
2024-03-05T19:54:51.161Z,10.20
2024-03-05T19:57:19.082Z,7.60
2024-03-05T19:59:45.810Z,7.43
2024-03-05T20:02:12.407Z,6.03
2024-03-05T20:04:39.088Z,6.90
2024-03-05T20:07:06.374Z,6.78
2024-03-05T20:09:33.075Z,5.95
2024-03-05T20:11:59.567Z,4.70
2024-03-05T20:14:26.089Z,5.18
2024-03-05T20:16:52.575Z,4.88
2024-03-05T20:19:20.710Z,5.68
2024-03-05T20:21:49.259Z,5.45
2024-03-05T20:24:16.142Z,4.97
2024-03-05T20:26:48.895Z,4.85
2024-03-05T20:29:15.403Z,5.18
2024-03-05T20:31:41.934Z,5.60
2024-03-05T20:34:10.757Z,6.30
2024-03-05T20:36:38.033Z,8.10
2024-03-05T20:39:05.875Z,8.50
2024-03-05T20:41:34.724Z,5.80
2024-03-05T20:44:01.343Z,5.15
2024-03-05T20:46:30.063Z,7.22
2024-03-05T20:48:56.862Z,4.72
2024-03-05T20:51:23.741Z,5.68
2024-03-05T20:53:50.373Z,5.88
2024-03-05T20:56:17.098Z,5.20
2024-03-05T20:58:43.580Z,5.80
2024-03-05T21:01:10.361Z,6.53
2024-03-05T21:03:37.127Z,6.57
2024-03-05T21:06:04.381Z,5.85
2024-03-05T21:08:32.591Z,8.38
2024-03-05T21:10:59.223Z,10.23
2024-03-05T21:13:27.903Z,8.93
2024-03-05T21:15:54.615Z,9.25
2024-03-05T21:18:21.255Z,5.30
2024-03-05T21:20:47.696Z,4.95
2024-03-05T21:23:17.912Z,5.00
2024-03-05T21:25:56.580Z,9.05
2024-03-05T21:28:31.670Z,16.80
2024-03-05T21:30:58.198Z,12.85
2024-03-05T21:33:24.712Z,10.85
2024-03-05T21:35:51.594Z,11.20
2024-03-05T21:38:18.607Z,6.95
2024-03-05T21:40:45.123Z,7.57
2024-03-05T21:43:11.701Z,8.30
2024-03-05T21:45:39.410Z,14.32
2024-03-05T21:48:06.102Z,7.55
2024-03-05T21:50:33.023Z,7.47
2024-03-05T21:52:59.513Z,7.97
2024-03-05T21:55:26.000Z,7.20
2024-03-05T21:57:52.464Z,9.20
2024-03-05T22:00:19.199Z,17.98
2024-03-05T22:02:46.079Z,18.58
2024-03-05T22:05:13.371Z,11.18
2024-03-05T22:07:40.352Z,8.77
2024-03-05T22:10:07.390Z,7.75
2024-03-05T22:12:34.266Z,20.92
2024-03-05T22:15:00.767Z,7.80
2024-03-05T22:17:27.709Z,10.73
2024-03-05T22:19:54.652Z,8.20
2024-03-05T22:22:22.934Z,8.02
2024-03-05T22:24:49.442Z,8.20
2024-03-05T22:27:16.048Z,6.32
2024-03-05T22:29:42.495Z,7.63
2024-03-05T22:32:09.025Z,7.38
2024-03-05T22:34:37.252Z,7.38
2024-03-05T22:37:04.458Z,5.55
2024-03-05T22:39:30.873Z,5.20
2024-03-05T22:41:57.361Z,6.88
2024-03-05T22:44:24.782Z,5.88
2024-03-05T22:46:51.378Z,6.35
2024-03-05T22:49:17.887Z,4.97
2024-03-05T22:51:44.460Z,7.63
2024-03-05T22:54:12.121Z,6.43
2024-03-05T22:56:38.631Z,8.15
2024-03-05T22:59:05.361Z,6.90
2024-03-05T23:01:31.979Z,7.85
2024-03-05T23:03:58.528Z,8.60
2024-03-05T23:06:25.913Z,6.90
2024-03-05T23:08:55.160Z,8.23
2024-03-05T23:11:21.820Z,6.25
2024-03-05T23:13:48.432Z,6.90
2024-03-05T23:16:14.953Z,6.32
2024-03-05T23:18:42.193Z,5.25
2024-03-05T23:21:10.795Z,8.75
2024-03-05T23:23:39.253Z,7.75
2024-03-05T23:26:07.515Z,5.97
2024-03-05T23:28:34.182Z,5.95
2024-03-05T23:31:00.730Z,5.35
2024-03-05T23:33:27.165Z,5.38
2024-03-05T23:35:53.581Z,6.20
2024-03-05T23:38:21.866Z,5.78
2024-03-05T23:40:48.359Z,6.53
2024-03-05T23:43:14.866Z,6.72
2024-03-05T23:45:41.301Z,6.50
2024-03-05T23:48:09.756Z,10.43
2024-03-05T23:50:36.488Z,7.80
2024-03-05T23:53:03.283Z,7.63
2024-03-05T23:55:29.918Z,6.30
2024-03-05T23:57:56.388Z,7.32
